This is the latest recevied weather packets stored in our database for station/object HS5GDX-2. If no packets are shown the sender has not sent any weather packets the latest 10 day(s).
| Time | Temp. | Humidity | Pressure | Rain* | Wind** | Luminosity | Snow |
|---|---|---|---|---|---|---|---|
| 1788423695 | 34.44° C | 58% | - | - | - | 0 W/m² | - |
| 1788420073 | 34.44° C | 58% | - | - | - | 0 W/m² | - |
| 1788416451 | 33.89° C | 59% | - | - | - | 0 W/m² | - |
| 1788412829 | 33.89° C | 61% | - | - | - | 0 W/m² | - |
| 1788409206 | 33.33° C | 61% | - | - | - | 0 W/m² | - |
| 1788405584 | 33.33° C | 62% | - | - | - | 0 W/m² | - |
| 1788401962 | 32.78° C | 62% | - | - | - | 0 W/m² | - |
| 1788376607 | 33.33° C | 63% | - | - | - | 0 W/m² | - |
| 1788372987 | 33.33° C | 63% | - | - | - | 0 W/m² | - |
| 1788365743 | 33.33° C | 65% | - | - | - | 0 W/m² | - |
| 1788358496 | 33.89° C | 63% | - | - | - | 0 W/m² | - |
| 1788354859 | 33.89° C | 63% | - | - | - | 0 W/m² | - |
| 1788354785 | 33.89° C | 63% | - | - | - | 0 W/m² | - |
| 1788351163 | 33.89° C | 62% | - | - | - | 0 W/m² | - |
| 1788347541 | 34.44° C | 61% | - | - | - | 0 W/m² | - |
| 1788347540 | 34.44° C | 61% | - | - | - | 0 W/m² | - |
| 1788343918 | 34.44° C | 61% | - | - | - | 0 W/m² | - |
| 1788340296 | 34.44° C | 60% | - | - | - | 0 W/m² | - |
| 1788336674 | 33.89° C | 61% | - | - | - | 0 W/m² | - |
| 1788333053 | 33.89° C | 60% | - | - | - | 0 W/m² | - |
| 1788333052 | 33.89° C | 60% | - | - | - | 0 W/m² | - |
| 1788329430 | 33.33° C | 61% | - | - | - | 0 W/m² | - |
| 1788325808 | 33.33° C | 62% | - | - | - | 0 W/m² | - |
| 1788296816 | 32.22° C | 66% | - | - | - | 0 W/m² | - |
| 1788289572 | 32.22° C | 65% | - | - | - | 0 W/m² | - |
* Rain since midnight (hover to see other rain measurements)
** Current wind speed in m/s (hover to see current wind gust speed)